createdAt,value
2023-04-09T00:02:10.365Z,6.20
2023-04-09T00:04:37.853Z,6.30
2023-04-09T00:07:05.222Z,6.30
2023-04-09T00:09:32.602Z,6.30
2023-04-09T00:11:59.941Z,6.30
2023-04-09T00:14:27.240Z,6.40
2023-04-09T00:16:54.715Z,6.40
2023-04-09T00:19:21.999Z,6.40
2023-04-09T00:21:49.417Z,6.40
2023-04-09T00:24:16.759Z,6.50
2023-04-09T00:26:44.225Z,6.50
2023-04-09T00:29:11.573Z,6.50
2023-04-09T00:31:38.901Z,6.50
2023-04-09T00:34:07.084Z,6.50
2023-04-09T00:36:34.409Z,6.40
2023-04-09T00:39:01.758Z,6.50
2023-04-09T00:41:29.093Z,6.50
2023-04-09T00:43:57.334Z,6.50
2023-04-09T00:46:24.742Z,6.50
2023-04-09T00:48:52.343Z,6.50
2023-04-09T00:51:20.577Z,6.50
2023-04-09T00:53:47.906Z,6.50
2023-04-09T00:56:16.022Z,6.50
2023-04-09T00:58:43.351Z,6.50
2023-04-09T01:01:10.899Z,6.50
2023-04-09T01:03:38.317Z,6.50
2023-04-09T01:06:11.390Z,6.50
2023-04-09T01:08:44.532Z,6.50
2023-04-09T01:11:31.014Z,6.50
2023-04-09T01:14:03.902Z,6.60
2023-04-09T01:16:31.994Z,6.50
2023-04-09T01:19:02.356Z,6.50
2023-04-09T01:21:33.420Z,6.50
2023-04-09T01:24:38.711Z,6.50
2023-04-09T01:27:06.690Z,6.50
2023-04-09T01:29:57.849Z,6.50
2023-04-09T01:32:25.421Z,6.50
2023-04-09T01:34:52.788Z,6.50
2023-04-09T01:37:20.522Z,6.50
2023-04-09T01:39:47.864Z,6.50
2023-04-09T01:42:15.522Z,6.50
2023-04-09T01:44:42.875Z,6.50
2023-04-09T01:47:10.244Z,6.50
2023-04-09T01:49:38.450Z,6.50
2023-04-09T01:52:05.912Z,6.50
2023-04-09T01:54:33.454Z,6.50
2023-04-09T01:57:01.196Z,6.60
2023-04-09T01:59:28.499Z,6.60
2023-04-09T02:02:04.647Z,6.60
2023-04-09T02:04:43.880Z,6.70
2023-04-09T02:07:24.947Z,6.60
2023-04-09T02:09:52.744Z,6.60
2023-04-09T02:12:20.503Z,6.60
2023-04-09T02:14:48.222Z,6.60
2023-04-09T02:17:15.610Z,6.60
2023-04-09T02:19:44.671Z,6.60
2023-04-09T02:22:12.176Z,6.50
2023-04-09T02:24:40.518Z,6.50
2023-04-09T02:27:07.982Z,6.50
2023-04-09T02:29:35.354Z,6.50
2023-04-09T02:32:02.718Z,6.50
2023-04-09T02:34:30.284Z,6.40
2023-04-09T02:36:57.640Z,6.40
2023-04-09T02:39:25.155Z,6.40
2023-04-09T02:41:52.737Z,6.40
2023-04-09T02:44:20.168Z,6.40
2023-04-09T02:46:49.209Z,6.40
2023-04-09T02:49:16.836Z,6.40
2023-04-09T02:51:44.175Z,6.40
2023-04-09T02:54:11.513Z,6.40
2023-04-09T02:56:38.892Z,6.40
2023-04-09T02:59:06.170Z,6.40
2023-04-09T03:01:33.677Z,6.40
2023-04-09T03:04:01.792Z,6.40
2023-04-09T03:06:29.313Z,6.40
2023-04-09T03:08:56.652Z,6.40
2023-04-09T03:11:23.988Z,6.40
2023-04-09T03:13:51.337Z,6.40
2023-04-09T03:16:19.286Z,6.40
2023-04-09T03:18:46.701Z,6.50
2023-04-09T03:21:14.961Z,6.50
2023-04-09T03:23:47.639Z,6.40
2023-04-09T03:26:14.934Z,6.40
2023-04-09T03:28:47.206Z,6.40
2023-04-09T03:31:14.746Z,6.40
2023-04-09T03:33:43.553Z,6.40
2023-04-09T03:36:11.818Z,6.40
2023-04-09T03:38:53.567Z,6.30
2023-04-09T03:41:32.074Z,6.30
2023-04-09T03:44:03.383Z,6.30
2023-04-09T03:46:37.330Z,6.30
2023-04-09T03:49:07.850Z,6.30
2023-04-09T03:51:41.955Z,6.30
2023-04-09T03:54:09.591Z,6.20
2023-04-09T03:56:37.117Z,6.20
2023-04-09T03:59:09.126Z,6.20
2023-04-09T04:01:40.487Z,6.10
2023-04-09T04:04:08.050Z,6.10
2023-04-09T04:06:44.544Z,6.10
2023-04-09T04:09:30.486Z,6.10
2023-04-09T04:12:05.817Z,6.00
2023-04-09T04:14:53.190Z,6.00
2023-04-09T04:17:26.546Z,5.90
2023-04-09T04:19:55.304Z,5.90
2023-04-09T04:22:26.097Z,5.90
2023-04-09T04:24:56.359Z,5.90
2023-04-09T04:27:24.239Z,5.90
2023-04-09T04:29:51.762Z,5.90
2023-04-09T04:32:37.667Z,5.90
2023-04-09T04:35:09.414Z,5.80
2023-04-09T04:37:37.031Z,5.80
2023-04-09T04:40:05.457Z,5.80
2023-04-09T04:42:36.181Z,5.80
2023-04-09T04:45:09.983Z,5.80
2023-04-09T04:48:03.323Z,5.80
2023-04-09T04:50:31.287Z,5.80
2023-04-09T04:53:07.928Z,5.80
2023-04-09T04:55:43.854Z,5.80
2023-04-09T04:58:14.694Z,5.80
2023-04-09T05:00:46.885Z,5.80
2023-04-09T05:03:15.072Z,5.90
2023-04-09T05:05:53.862Z,5.90
2023-04-09T05:08:22.123Z,5.90
2023-04-09T05:10:55.960Z,5.90
2023-04-09T05:13:26.471Z,5.90
2023-04-09T05:15:54.261Z,5.90
2023-04-09T05:18:21.737Z,5.90
2023-04-09T05:20:49.074Z,5.90
2023-04-09T05:23:17.295Z,5.90
2023-04-09T05:25:51.476Z,5.90
2023-04-09T05:28:27.612Z,5.90
2023-04-09T05:31:11.752Z,5.90
2023-04-09T05:33:44.102Z,5.90
2023-04-09T05:36:18.568Z,5.80
2023-04-09T05:38:49.005Z,5.80
2023-04-09T05:41:16.301Z,5.80
2023-04-09T05:44:00.787Z,5.80
2023-04-09T05:46:29.219Z,5.80
2023-04-09T05:48:57.684Z,5.90
2023-04-09T05:51:27.356Z,5.90
2023-04-09T05:53:56.918Z,5.90
2023-04-09T05:56:24.351Z,6.00
2023-04-09T05:58:55.632Z,6.10
2023-04-09T06:01:23.241Z,6.10
2023-04-09T06:03:50.901Z,6.10
2023-04-09T06:06:18.569Z,6.20
2023-04-09T06:08:46.079Z,6.20
2023-04-09T06:11:13.468Z,6.20
2023-04-09T06:13:41.473Z,6.20
2023-04-09T06:16:09.279Z,6.20
2023-04-09T06:18:39.759Z,6.20
2023-04-09T06:21:07.661Z,6.20
2023-04-09T06:23:35.850Z,6.30
2023-04-09T06:26:03.188Z,6.30
2023-04-09T06:28:31.542Z,6.40
2023-04-09T06:30:59.031Z,6.40
2023-04-09T06:33:28.492Z,6.40
2023-04-09T06:35:56.303Z,6.50
2023-04-09T06:38:23.710Z,6.60
2023-04-09T06:40:52.024Z,6.70
2023-04-09T06:43:19.497Z,6.70
2023-04-09T06:45:51.441Z,6.80
2023-04-09T06:48:18.762Z,6.80
2023-04-09T06:50:46.109Z,6.80
2023-04-09T06:53:14.692Z,6.90
2023-04-09T06:55:42.177Z,7.00
2023-04-09T06:58:09.491Z,7.00
2023-04-09T07:00:36.807Z,7.00
2023-04-09T07:03:05.525Z,7.10
2023-04-09T07:05:33.261Z,7.10
2023-04-09T07:08:00.627Z,7.20
2023-04-09T07:10:27.942Z,7.20
2023-04-09T07:12:55.218Z,7.30
2023-04-09T07:15:22.605Z,7.30
2023-04-09T07:17:50.012Z,7.40
2023-04-09T07:20:17.497Z,7.50
2023-04-09T07:22:44.814Z,7.50
2023-04-09T07:25:12.170Z,7.50
2023-04-09T07:27:39.473Z,7.60
2023-04-09T07:30:07.439Z,7.70
2023-04-09T07:32:34.761Z,7.80
2023-04-09T07:35:03.127Z,7.80
2023-04-09T07:37:30.528Z,7.90
2023-04-09T07:39:57.887Z,8.00
2023-04-09T07:42:25.690Z,8.00
2023-04-09T07:44:53.692Z,8.00
2023-04-09T07:47:21.752Z,8.00
2023-04-09T07:49:49.263Z,8.00
2023-04-09T07:52:16.680Z,8.00
2023-04-09T07:54:44.034Z,8.10
2023-04-09T07:57:11.410Z,8.10
2023-04-09T07:59:38.784Z,8.20
2023-04-09T08:02:06.611Z,8.20
2023-04-09T08:04:34.200Z,8.30
2023-04-09T08:07:01.596Z,8.40
2023-04-09T08:09:28.930Z,8.40
2023-04-09T08:11:57.227Z,8.50
2023-04-09T08:14:24.573Z,8.60
2023-04-09T08:16:52.005Z,8.70
2023-04-09T08:19:20.350Z,8.90
2023-04-09T08:21:49.584Z,8.90
2023-04-09T08:24:17.238Z,9.00
2023-04-09T08:26:44.908Z,9.00
2023-04-09T08:29:12.974Z,9.00
2023-04-09T08:31:40.394Z,9.10
2023-04-09T08:34:07.818Z,9.20
2023-04-09T08:36:35.848Z,9.30
2023-04-09T08:39:03.688Z,9.40
2023-04-09T08:41:31.287Z,9.50
2023-04-09T08:43:59.778Z,9.50
2023-04-09T08:46:27.965Z,9.50
2023-04-09T08:48:55.739Z,9.60
2023-04-09T08:51:24.839Z,9.70
2023-04-09T08:54:00.198Z,9.70
2023-04-09T08:56:29.556Z,9.80
2023-04-09T08:58:56.964Z,10.00
2023-04-09T09:01:28.635Z,10.00
2023-04-09T09:04:04.286Z,10.10
2023-04-09T09:06:33.873Z,10.10
2023-04-09T09:09:14.653Z,10.10
2023-04-09T09:11:42.539Z,10.00
2023-04-09T09:14:14.149Z,9.80
2023-04-09T09:16:43.522Z,9.70
2023-04-09T09:19:26.536Z,9.70
2023-04-09T09:21:57.553Z,9.70
2023-04-09T09:24:24.836Z,9.70
2023-04-09T09:26:52.518Z,9.80
2023-04-09T09:29:20.151Z,9.90
2023-04-09T09:31:49.449Z,10.10
2023-04-09T09:34:17.469Z,10.20
2023-04-09T09:36:45.037Z,10.20
2023-04-09T09:39:13.210Z,10.30
2023-04-09T09:41:41.713Z,10.50
2023-04-09T09:44:10.385Z,10.60
2023-04-09T09:46:39.297Z,10.60
2023-04-09T09:49:07.079Z,10.70
2023-04-09T09:51:39.446Z,10.80
2023-04-09T09:54:08.245Z,10.90
2023-04-09T09:56:37.092Z,10.90
2023-04-09T09:59:08.174Z,10.90
2023-04-09T10:01:36.636Z,11.00
2023-04-09T10:04:05.888Z,11.00
2023-04-09T10:06:34.525Z,11.10
2023-04-09T10:09:04.788Z,11.20
2023-04-09T10:11:33.655Z,11.30
2023-04-09T10:14:01.168Z,11.40
2023-04-09T10:16:28.616Z,11.40
2023-04-09T10:18:56.517Z,11.40
2023-04-09T10:21:37.102Z,11.40
2023-04-09T10:24:06.562Z,11.40
2023-04-09T10:26:34.354Z,11.30
2023-04-09T10:29:08.635Z,11.30
2023-04-09T10:31:55.899Z,11.30
2023-04-09T10:34:24.406Z,11.40
2023-04-09T10:36:55.417Z,11.50
2023-04-09T10:39:27.142Z,11.50
2023-04-09T10:41:54.774Z,11.50
2023-04-09T10:44:27.104Z,11.50
2023-04-09T10:46:58.508Z,11.50
2023-04-09T10:49:26.562Z,11.50
2023-04-09T10:52:09.560Z,11.50
2023-04-09T10:54:48.338Z,11.50
2023-04-09T10:57:20.165Z,11.50
2023-04-09T10:59:49.317Z,11.40
2023-04-09T11:02:37.950Z,11.40
2023-04-09T11:05:24.361Z,11.20
2023-04-09T11:07:58.711Z,11.10
2023-04-09T11:10:26.793Z,11.20
2023-04-09T11:12:56.787Z,11.30
2023-04-09T11:15:24.101Z,11.40
2023-04-09T11:17:51.492Z,11.60
2023-04-09T11:20:23.083Z,11.70
2023-04-09T11:22:51.485Z,11.80
2023-04-09T11:25:23.908Z,11.80
2023-04-09T11:27:51.326Z,11.90
2023-04-09T11:30:18.863Z,12.00
2023-04-09T11:32:46.450Z,12.00
2023-04-09T11:35:14.904Z,12.00
2023-04-09T11:37:42.926Z,12.10
2023-04-09T11:40:17.032Z,12.10
2023-04-09T11:42:45.096Z,12.00
2023-04-09T11:45:12.659Z,12.00
2023-04-09T11:47:41.698Z,11.90
2023-04-09T11:50:11.990Z,11.90
2023-04-09T11:52:40.187Z,11.90
2023-04-09T11:55:08.657Z,12.00
2023-04-09T11:57:46.583Z,11.90
2023-04-09T12:00:14.973Z,11.90
2023-04-09T12:02:58.493Z,11.80
2023-04-09T12:05:29.047Z,11.80
2023-04-09T12:08:04.971Z,11.70
2023-04-09T12:10:33.781Z,11.70
2023-04-09T12:13:10.201Z,11.60
2023-04-09T12:15:38.869Z,11.70
2023-04-09T12:18:08.514Z,11.60
2023-04-09T12:20:36.695Z,11.50
2023-04-09T12:23:04.882Z,11.50
2023-04-09T12:25:36.944Z,11.40
2023-04-09T12:28:05.632Z,11.40
2023-04-09T12:30:33.656Z,11.40
2023-04-09T12:33:01.469Z,11.40
2023-04-09T12:35:29.298Z,11.50
2023-04-09T12:37:56.774Z,11.50
2023-04-09T12:40:24.134Z,11.70
2023-04-09T12:42:51.709Z,11.80
2023-04-09T12:45:19.697Z,11.90
2023-04-09T12:47:47.411Z,11.90
2023-04-09T12:50:16.113Z,12.00
2023-04-09T12:52:44.252Z,12.10
2023-04-09T12:55:12.010Z,12.10
2023-04-09T12:57:39.692Z,12.10
2023-04-09T13:00:07.999Z,12.10
2023-04-09T13:02:36.033Z,12.10
2023-04-09T13:05:04.452Z,12.00
2023-04-09T13:07:31.859Z,11.90
2023-04-09T13:09:59.169Z,11.90
2023-04-09T13:12:26.783Z,11.80
2023-04-09T13:14:54.463Z,11.80
2023-04-09T13:17:22.301Z,11.80
2023-04-09T13:19:50.670Z,11.80
2023-04-09T13:22:18.740Z,11.80
2023-04-09T13:24:46.195Z,11.70
2023-04-09T13:27:14.099Z,11.60
2023-04-09T13:29:41.490Z,11.60
2023-04-09T13:32:10.780Z,11.60
2023-04-09T13:34:38.703Z,11.50
2023-04-09T13:37:06.231Z,11.50
2023-04-09T13:39:33.595Z,11.60
2023-04-09T13:42:07.341Z,11.70
2023-04-09T13:44:37.565Z,11.70
2023-04-09T13:47:04.902Z,11.80
2023-04-09T13:49:32.209Z,11.80
2023-04-09T13:51:59.571Z,11.90
2023-04-09T13:54:27.204Z,11.80
2023-04-09T13:56:54.528Z,11.70
2023-04-09T13:59:21.857Z,11.80
2023-04-09T14:01:49.264Z,11.80
2023-04-09T14:04:16.743Z,12.00
2023-04-09T14:06:44.192Z,12.10
2023-04-09T14:09:11.625Z,12.20
2023-04-09T14:11:39.036Z,12.30
2023-04-09T14:14:06.452Z,12.30
2023-04-09T14:16:33.911Z,12.10
2023-04-09T14:19:01.589Z,11.90
2023-04-09T14:21:29.288Z,12.00
2023-04-09T14:23:56.623Z,12.20
2023-04-09T14:26:24.367Z,12.30
2023-04-09T14:28:52.223Z,12.40
2023-04-09T14:31:22.622Z,12.40
2023-04-09T14:33:50.317Z,12.40
2023-04-09T14:36:17.771Z,12.20
2023-04-09T14:38:45.898Z,12.00
2023-04-09T14:41:13.296Z,12.10
2023-04-09T14:43:40.830Z,12.00
2023-04-09T14:46:11.699Z,12.10
2023-04-09T14:48:39.977Z,12.20
2023-04-09T14:51:11.252Z,12.40
2023-04-09T14:53:38.685Z,12.50
2023-04-09T14:56:06.648Z,12.50
2023-04-09T14:58:34.011Z,12.30
2023-04-09T15:01:01.455Z,12.10
2023-04-09T15:03:28.947Z,12.00
2023-04-09T15:05:56.846Z,11.90
2023-04-09T15:08:24.164Z,12.00
2023-04-09T15:10:51.532Z,12.10
2023-04-09T15:13:18.852Z,12.20
2023-04-09T15:15:46.463Z,12.20
2023-04-09T15:18:13.750Z,12.30
2023-04-09T15:20:42.366Z,12.40
2023-04-09T15:23:12.906Z,12.40
2023-04-09T15:25:40.282Z,12.40
2023-04-09T15:28:07.673Z,12.50
2023-04-09T15:30:35.519Z,12.50
2023-04-09T15:33:02.986Z,12.60
2023-04-09T15:35:30.595Z,12.60
2023-04-09T15:37:58.097Z,12.60
2023-04-09T15:40:25.446Z,12.50
2023-04-09T15:42:52.735Z,12.60
2023-04-09T15:45:20.137Z,12.60
2023-04-09T15:47:47.465Z,12.50
2023-04-09T15:50:14.776Z,12.30
2023-04-09T15:52:42.161Z,12.20
2023-04-09T15:55:10.006Z,12.00
2023-04-09T15:57:38.538Z,12.00
2023-04-09T16:00:09.723Z,12.00
2023-04-09T16:02:38.979Z,11.90
2023-04-09T16:05:07.211Z,12.00
2023-04-09T16:07:34.650Z,12.00
2023-04-09T16:10:02.237Z,12.10
2023-04-09T16:12:29.603Z,12.10
2023-04-09T16:14:56.944Z,12.20
2023-04-09T16:17:24.349Z,12.20
2023-04-09T16:19:51.772Z,12.30
2023-04-09T16:22:19.073Z,12.30
2023-04-09T16:24:46.397Z,12.20
2023-04-09T16:27:14.468Z,12.20
2023-04-09T16:29:42.174Z,12.10
2023-04-09T16:32:09.591Z,12.10
2023-04-09T16:34:36.985Z,12.10
2023-04-09T16:37:04.351Z,12.00
2023-04-09T16:39:31.609Z,11.90
2023-04-09T16:41:59.016Z,11.80
2023-04-09T16:44:26.747Z,11.80
2023-04-09T16:46:54.140Z,11.80
2023-04-09T16:49:21.402Z,11.70
2023-04-09T16:51:50.765Z,11.60
2023-04-09T16:54:18.099Z,11.60
2023-04-09T16:56:45.448Z,11.50
2023-04-09T16:59:13.518Z,11.40
2023-04-09T17:01:41.082Z,11.40
2023-04-09T17:04:08.491Z,11.30
2023-04-09T17:06:35.806Z,11.20
2023-04-09T17:09:05.354Z,11.10
2023-04-09T17:11:34.649Z,11.00
2023-04-09T17:14:01.993Z,11.00
2023-04-09T17:16:29.420Z,10.90
2023-04-09T17:18:56.770Z,10.90
2023-04-09T17:21:24.139Z,10.80
2023-04-09T17:23:51.437Z,10.80
2023-04-09T17:26:19.006Z,10.80
2023-04-09T17:28:46.958Z,10.70
2023-04-09T17:31:15.814Z,10.70
2023-04-09T17:33:49.277Z,10.70
2023-04-09T17:36:20.394Z,10.60
2023-04-09T17:38:48.645Z,10.50
2023-04-09T17:41:16.016Z,10.50
2023-04-09T17:43:43.332Z,10.40
2023-04-09T17:46:11.628Z,10.40
2023-04-09T17:48:39.226Z,10.40
2023-04-09T17:51:07.211Z,10.40
2023-04-09T17:53:34.565Z,10.30
2023-04-09T17:56:04.030Z,10.30
2023-04-09T17:58:31.855Z,10.20
2023-04-09T18:00:59.615Z,10.20
2023-04-09T18:03:27.365Z,10.10
2023-04-09T18:05:54.975Z,10.00
2023-04-09T18:08:22.335Z,10.00
2023-04-09T18:11:04.941Z,10.00
2023-04-09T18:13:38.590Z,10.00
2023-04-09T18:16:10.113Z,9.90
2023-04-09T18:18:37.709Z,9.90
2023-04-09T18:21:06.210Z,9.90
2023-04-09T18:23:33.695Z,9.80
2023-04-09T18:26:01.067Z,9.80
2023-04-09T18:28:28.421Z,9.70
2023-04-09T18:30:55.878Z,9.70
2023-04-09T18:33:23.362Z,9.60
2023-04-09T18:35:50.707Z,9.60
2023-04-09T18:38:18.314Z,9.60
2023-04-09T18:40:45.661Z,9.60
2023-04-09T18:43:13.014Z,9.50
2023-04-09T18:45:40.808Z,9.50
2023-04-09T18:48:08.959Z,9.50
2023-04-09T18:50:36.711Z,9.40
2023-04-09T18:53:05.551Z,9.40
2023-04-09T18:55:35.835Z,9.40
2023-04-09T18:58:05.262Z,9.40
2023-04-09T19:00:32.659Z,9.40
2023-04-09T19:03:00.168Z,9.30
2023-04-09T19:05:29.598Z,9.30
2023-04-09T19:08:03.122Z,9.20
2023-04-09T19:10:30.702Z,9.20
2023-04-09T19:12:58.175Z,9.10
2023-04-09T19:15:26.686Z,9.10
2023-04-09T19:17:54.233Z,9.10
2023-04-09T19:20:21.870Z,9.10
2023-04-09T19:22:50.203Z,9.10
2023-04-09T19:25:18.343Z,9.10
2023-04-09T19:27:45.816Z,9.00
2023-04-09T19:30:13.308Z,9.00
2023-04-09T19:32:41.679Z,8.90
2023-04-09T19:35:09.250Z,8.90
2023-04-09T19:37:36.589Z,8.90
2023-04-09T19:40:04.661Z,8.80
2023-04-09T19:42:34.743Z,8.80
2023-04-09T19:45:02.061Z,8.80
2023-04-09T19:47:29.497Z,8.80
2023-04-09T19:49:57.277Z,8.70
2023-04-09T19:52:24.941Z,8.70
2023-04-09T19:54:56.324Z,8.70
2023-04-09T19:57:23.795Z,8.70
2023-04-09T19:59:52.293Z,8.70
2023-04-09T20:02:19.890Z,8.70
2023-04-09T20:04:47.388Z,8.70
2023-04-09T20:07:15.648Z,8.70
2023-04-09T20:09:43.582Z,8.70
2023-04-09T20:12:11.116Z,8.70
2023-04-09T20:14:39.261Z,8.70
2023-04-09T20:17:08.743Z,8.70
2023-04-09T20:19:36.181Z,8.70
2023-04-09T20:22:03.551Z,8.60
2023-04-09T20:24:30.924Z,8.60
2023-04-09T20:26:59.653Z,8.50
2023-04-09T20:29:27.123Z,8.50
2023-04-09T20:31:54.603Z,8.50
2023-04-09T20:34:26.591Z,8.40
2023-04-09T20:36:54.537Z,8.40
2023-04-09T20:39:22.347Z,8.30
2023-04-09T20:41:49.653Z,8.30
2023-04-09T20:44:16.983Z,8.20
2023-04-09T20:46:44.358Z,8.20
2023-04-09T20:49:12.237Z,8.10
2023-04-09T20:51:39.927Z,8.10
2023-04-09T20:54:07.257Z,8.10
2023-04-09T20:56:34.911Z,8.10
2023-04-09T20:59:02.284Z,8.00
2023-04-09T21:01:29.954Z,8.00
2023-04-09T21:03:57.543Z,8.00
2023-04-09T21:06:25.142Z,8.00
2023-04-09T21:08:52.790Z,8.00
2023-04-09T21:11:20.546Z,7.90
2023-04-09T21:13:54.529Z,7.90
2023-04-09T21:16:23.036Z,7.90
2023-04-09T21:18:50.756Z,7.90
2023-04-09T21:21:18.359Z,7.80
2023-04-09T21:23:45.708Z,7.80
2023-04-09T21:26:14.142Z,7.70
2023-04-09T21:28:41.491Z,7.70
2023-04-09T21:31:13.047Z,7.60
2023-04-09T21:33:40.626Z,7.60
2023-04-09T21:36:08.422Z,7.60
2023-04-09T21:38:35.911Z,7.50
2023-04-09T21:41:03.228Z,7.50
2023-04-09T21:43:30.785Z,7.50
2023-04-09T21:45:58.142Z,7.50
2023-04-09T21:48:26.497Z,7.50
2023-04-09T21:50:53.928Z,7.50
2023-04-09T21:53:21.283Z,7.50
2023-04-09T21:55:48.570Z,7.40
2023-04-09T21:58:15.927Z,7.40
2023-04-09T22:00:43.270Z,7.30
2023-04-09T22:03:11.165Z,7.30
2023-04-09T22:05:38.689Z,7.30
2023-04-09T22:08:06.185Z,7.30
2023-04-09T22:10:33.590Z,7.20
2023-04-09T22:13:01.218Z,7.20
2023-04-09T22:15:29.065Z,7.20
2023-04-09T22:17:56.488Z,7.20
2023-04-09T22:20:26.176Z,7.20
2023-04-09T22:22:54.185Z,7.10
2023-04-09T22:25:22.182Z,7.10
2023-04-09T22:27:53.450Z,7.10
2023-04-09T22:30:21.827Z,7.10
2023-04-09T22:32:49.941Z,7.10
2023-04-09T22:35:18.384Z,7.10
2023-04-09T22:37:46.949Z,7.00
2023-04-09T22:40:15.555Z,7.00
2023-04-09T22:42:43.676Z,7.00
2023-04-09T22:45:11.250Z,7.00
2023-04-09T22:47:38.908Z,6.90
2023-04-09T22:50:07.585Z,7.00
2023-04-09T22:52:37.114Z,7.00
2023-04-09T22:55:05.089Z,6.90
2023-04-09T22:57:32.508Z,6.90
2023-04-09T22:59:59.878Z,6.90
2023-04-09T23:02:27.583Z,6.90
2023-04-09T23:04:55.124Z,6.80
2023-04-09T23:07:22.501Z,6.80
2023-04-09T23:09:49.891Z,6.80
2023-04-09T23:12:17.162Z,6.80
2023-04-09T23:14:44.460Z,6.80
2023-04-09T23:17:11.754Z,6.70
2023-04-09T23:19:39.058Z,6.70
2023-04-09T23:22:06.738Z,6.70
2023-04-09T23:24:34.066Z,6.60
2023-04-09T23:27:02.164Z,6.60
2023-04-09T23:29:29.435Z,6.60
2023-04-09T23:31:56.809Z,6.60
2023-04-09T23:34:24.127Z,6.60
2023-04-09T23:36:51.660Z,6.60
2023-04-09T23:39:18.971Z,6.60
2023-04-09T23:41:46.321Z,6.60
2023-04-09T23:44:13.671Z,6.50
2023-04-09T23:46:41.640Z,6.40
2023-04-09T23:49:09.056Z,6.40
2023-04-09T23:51:36.429Z,6.40
2023-04-09T23:54:03.853Z,6.40
2023-04-09T23:56:31.317Z,6.30
2023-04-09T23:58:58.778Z,6.30
